Terminal Aerodrome Forecast
Issued by NWS

Home | Current Version | Previous Version | Text Only | Print | Product List | Glossary On
Versions: 1 2 3 4 5 6 7 8 9 10 11 12 13
000
FTUS45 KTWC 242300
TAFOLS
TAF
KOLS 242325Z 2500/2524 24011G17KT P6SM BKN250
     FM250300 19006KT P6SM SCT250
     FM250800 VRB04KT P6SM SKC
     FM251500 20014G22KT P6SM SCT250
     FM251900 22022G32KT P6SM SCT250=

USA.gov is the U.S. government's official web portal to all federal, state and local government web resources and services.